Melissa — E5U2571 — position and weather

sailwx.info

Track history (hours):
 
Tides and Currents Weather Stations Pressure Air Temp Water Temp Dewpoint Dewpoint Depression Visibility Wind Speed Wind Dir Waves Ship Positions

Melissa

Last reported at 2017-Nov-16 14:02 UTC. Time now 2017-Nov-24 09:37 UTC.
Position N 38°21' E 023°47'.

Length 83 m; draft 4.2 m.

Type: Cargo ship. MMSI: 518624000.

Date/timePositionNaut miles runAvg speedWind from/ knotsBaromVisibWave heightAir tempDewpointWater temp
2017-Nov-16 14:02N 38°21' E 023°47'1 7.8
2017-Nov-16 13:51N 38°21' E 023°49'16 7.7
2017-Nov-16 11:46N 38°12' E 024°06'2 7.3
2017-Nov-16 11:28N 38°10' E 024°08'6 7.2
2017-Nov-16 10:41N 38°05' E 024°10'1 7.2
2017-Nov-16 10:30N 38°04' E 024°11'4 7.4
2017-Nov-16 09:59N 38°00' E 024°12'  
2017-Nov-14 04:04N 40°59' E 028°58'1 7.8
2017-Nov-14 03:55N 40°59' E 028°59'  
2017-Nov-11 12:05N 44°24' E 037°20'1 8.0
2017-Nov-11 11:58N 44°25' E 037°21'4 8.0
2017-Nov-11 11:29N 44°27' E 037°26'4 8.0
2017-Nov-11 11:00N 44°28' E 037°31'4 7.8
2017-Nov-11 10:30N 44°30' E 037°35'4 7.6
2017-Nov-11 10:00N 44°32' E 037°40'4 7.2
2017-Nov-11 09:30N 44°34' E 037°45'4 7.5
2017-Nov-11 09:00N 44°37' E 037°48'3 7.0
2017-Nov-11 08:30N 44°40' E 037°51'4 7.3
2017-Nov-11 08:00N 44°43' E 037°48'1 2.6
2017-Nov-11 07:28N 44°44' E 037°47'0 0.0
2017-Nov-11 06:58N 44°44' E 037°47'0 0.0
2017-Nov-11 06:28N 44°44' E 037°47'0 0.0
2017-Nov-11 05:58N 44°44' E 037°47'0 0.0
2017-Nov-11 05:28N 44°44' E 037°47'0 0.0
2017-Nov-11 04:58N 44°44' E 037°47'0 0.0
2017-Nov-11 04:13N 44°44' E 037°47'0 0.0
2017-Nov-11 03:55N 44°44' E 037°47'0 0.0
2017-Nov-11 03:28N 44°44' E 037°47'0 0.0
2017-Nov-11 02:58N 44°44' E 037°47'0 0.0
2017-Nov-11 02:28N 44°44' E 037°47'0 0.0
2017-Nov-11 01:58N 44°44' E 037°47'0 0.0
2017-Nov-11 01:28N 44°44' E 037°47'0 0.0
2017-Nov-11 00:58N 44°44' E 037°47'0 0.0
2017-Nov-11 00:28N 44°44' E 037°47'0 0.0
2017-Nov-10 23:58N 44°44' E 037°47'0 0.0
2017-Nov-10 23:28N 44°44' E 037°47'0 0.0
2017-Nov-10 22:58N 44°44' E 037°47'0 0.0
2017-Nov-10 22:28N 44°44' E 037°47'0 0.0
2017-Nov-10 21:58N 44°44' E 037°47'0 0.0
2017-Nov-10 21:28N 44°44' E 037°47'0 0.0
2017-Nov-10 20:58N 44°44' E 037°47'0 0.0
2017-Nov-10 20:28N 44°44' E 037°47'0 0.0
2017-Nov-10 19:58N 44°44' E 037°47'0 0.0
2017-Nov-10 19:28N 44°44' E 037°47'0 0.0
2017-Nov-10 18:58N 44°44' E 037°47'0 0.0
2017-Nov-10 18:28N 44°44' E 037°47'0 0.0
2017-Nov-10 17:58N 44°44' E 037°47'0 0.0
2017-Nov-10 17:28N 44°44' E 037°47'0 0.0
2017-Nov-10 16:58N 44°44' E 037°47'0 0.0
2017-Nov-10 16:28N 44°44' E 037°47'0 0.0
2017-Nov-10 15:58N 44°44' E 037°47'0 0.0
2017-Nov-10 15:28N 44°44' E 037°47'0 0.0
2017-Nov-10 14:58N 44°44' E 037°47'0 0.0
2017-Nov-10 14:28N 44°44' E 037°47'0 0.0
2017-Nov-10 13:58N 44°44' E 037°47'0 0.0
2017-Nov-10 13:19N 44°44' E 037°47'0 0.0
2017-Nov-10 12:58N 44°44' E 037°47'0 0.0
2017-Nov-10 12:28N 44°44' E 037°47'0 0.0
2017-Nov-10 11:58N 44°44' E 037°47'0 0.0
2017-Nov-10 11:25N 44°44' E 037°47'0 0.0
2017-Nov-10 10:58N 44°44' E 037°47'0 0.0
2017-Nov-10 10:25N 44°44' E 037°47'0 0.0
2017-Nov-10 09:58N 44°44' E 037°47'0 0.0
2017-Nov-10 09:28N 44°44' E 037°47'0 0.0
2017-Nov-10 08:58N 44°44' E 037°47'0 0.0
2017-Nov-10 08:28N 44°44' E 037°47'0 0.0
2017-Nov-10 07:58N 44°44' E 037°47'0 0.0
2017-Nov-10 07:28N 44°44' E 037°47'0 0.0
2017-Nov-10 06:58N 44°44' E 037°47'0 0.0
2017-Nov-10 06:28N 44°44' E 037°47'0 0.0
2017-Nov-10 06:01N 44°44' E 037°47'0 0.0
2017-Nov-10 05:30N 44°44' E 037°47'0 0.0
2017-Nov-10 05:00N 44°44' E 037°47'0 0.0
2017-Nov-10 04:30N 44°44' E 037°47'0 0.0
2017-Nov-10 04:00N 44°44' E 037°47'0 0.0
2017-Nov-10 03:30N 44°44' E 037°47'0 0.0
2017-Nov-10 03:00N 44°44' E 037°47'0 0.0
2017-Nov-10 02:30N 44°44' E 037°47'0 0.0
2017-Nov-10 02:00N 44°44' E 037°47'0 0.0
2017-Nov-10 01:30N 44°44' E 037°47'0 0.0
2017-Nov-10 01:00N 44°44' E 037°47'0 0.0
2017-Nov-10 00:30N 44°44' E 037°47'0 0.0
2017-Nov-10 00:00N 44°44' E 037°47'1 2.4
2017-Nov-09 23:30N 44°43' E 037°48'4 7.8
2017-Nov-09 23:00N 44°40' E 037°51'4 7.3
2017-Nov-09 22:30N 44°36' E 037°52'4 7.8
2017-Nov-09 22:00N 44°32' E 037°52'4 8.0
2017-Nov-09 21:30N 44°28' E 037°51'4 8.2
2017-Nov-09 21:00N 44°24' E 037°50'4 8.3
2017-Nov-09 20:30N 44°20' E 037°50'11 0.3
2017-Nov-08 09:38N 44°10' E 037°42'4 8.4
2017-Nov-08 09:10N 44°14' E 037°44'2 8.3
2017-Nov-08 08:58N 44°16' E 037°45'4 8.6
2017-Nov-08 08:30N 44°19' E 037°47'3 6.9
2017-Nov-08 08:00N 44°23' E 037°49'0 0.4
2017-Nov-08 07:05N 44°22' E 037°49'0 0.4
2017-Nov-08 06:59N 44°22' E 037°49'0 0.4
2017-Nov-08 06:29N 44°22' E 037°49'0 0.5
2017-Nov-08 05:44N 44°22' E 037°49'6 0.3
2017-Nov-07 12:47N 44°17' E 037°45'2 6.8
2017-Nov-07 12:30N 44°18' E 037°43'4 6.9
2017-Nov-07 12:00N 44°21' E 037°41'3 7.0
2017-Nov-07 11:31N 44°24' E 037°38'4 7.1
2017-Nov-07 11:01N 44°27' E 037°36'0 0.3
2017-Nov-07 10:28N 44°27' E 037°36'1 1.6
2017-Nov-07 09:58N 44°27' E 037°36'1 1.6
2017-Nov-07 09:22N 44°26' E 037°37'1 1.6
2017-Nov-07 08:58N 44°25' E 037°37'1 1.6
2017-Nov-07 08:28N 44°25' E 037°38'1 1.8
2017-Nov-07 07:54N 44°24' E 037°39'2 4.9
2017-Nov-07 07:30N 44°25' E 037°41'4 7.0
2017-Nov-07 06:58N 44°25' E 037°46'1 2.3
2017-Nov-07 06:29N 44°25' E 037°48'1 1.6
2017-Nov-07 05:41N 44°24' E 037°49'0 1.6
2017-Nov-07 05:28N 44°23' E 037°49'2 4.7
2017-Nov-07 05:00N 44°23' E 037°52'4 8.9
2017-Nov-07 04:30N 44°21' E 037°58'30 8.4
2017-Nov-07 01:00N 44°05' E 038°33'5 8.9
2017-Nov-07 00:29N 44°02' E 038°37'4 8.7
2017-Nov-07 00:00N 43°59' E 038°42'4 8.1
2017-Nov-06 23:30N 43°57' E 038°46'4 8.3
2017-Nov-06 23:00N 43°54' E 038°50'4 8.4
2017-Nov-06 22:30N 43°51' E 038°54'4 8.4
2017-Nov-06 22:01N 43°48' E 038°58'4 8.5
2017-Nov-06 21:30N 43°45' E 039°03'5 8.7
2017-Nov-06 20:59N 43°42' E 039°07'  
Track history (hours):
 
Tides and Currents Weather Stations Pressure Air Temp Water Temp Dewpoint Dewpoint Depression Visibility Wind Speed Wind Dir Waves Ship Positions

Melissa

Last reported at 2017-Nov-16 14:02 UTC. Time now 2017-Nov-24 09:37 UTC.
Position N 38°21' E 023°47'.

Length 83 m; draft 4.2 m.

Type: Cargo ship. MMSI: 518624000.

Date/timePositionNaut miles runAvg speedWind from/ knotsBaromVisibWave heightAir tempDewpointWater temp
2017-Nov-16 14:02N 38°21' E 023°47'1 7.8
2017-Nov-16 13:51N 38°21' E 023°49'16 7.7
2017-Nov-16 11:46N 38°12' E 024°06'2 7.3
2017-Nov-16 11:28N 38°10' E 024°08'6 7.2
2017-Nov-16 10:41N 38°05' E 024°10'1 7.2
2017-Nov-16 10:30N 38°04' E 024°11'4 7.4
2017-Nov-16 09:59N 38°00' E 024°12'  
2017-Nov-14 04:04N 40°59' E 028°58'1 7.8
2017-Nov-14 03:55N 40°59' E 028°59'  
2017-Nov-11 12:05N 44°24' E 037°20'1 8.0
2017-Nov-11 11:58N 44°25' E 037°21'4 8.0
2017-Nov-11 11:29N 44°27' E 037°26'4 8.0
2017-Nov-11 11:00N 44°28' E 037°31'4 7.8
2017-Nov-11 10:30N 44°30' E 037°35'4 7.6
2017-Nov-11 10:00N 44°32' E 037°40'4 7.2
2017-Nov-11 09:30N 44°34' E 037°45'4 7.5
2017-Nov-11 09:00N 44°37' E 037°48'3 7.0
2017-Nov-11 08:30N 44°40' E 037°51'4 7.3
2017-Nov-11 08:00N 44°43' E 037°48'1 2.6
2017-Nov-11 07:28N 44°44' E 037°47'0 0.0
2017-Nov-11 06:58N 44°44' E 037°47'0 0.0
2017-Nov-11 06:28N 44°44' E 037°47'0 0.0
2017-Nov-11 05:58N 44°44' E 037°47'0 0.0
2017-Nov-11 05:28N 44°44' E 037°47'0 0.0
2017-Nov-11 04:58N 44°44' E 037°47'0 0.0
2017-Nov-11 04:13N 44°44' E 037°47'0 0.0
2017-Nov-11 03:55N 44°44' E 037°47'0 0.0
2017-Nov-11 03:28N 44°44' E 037°47'0 0.0
2017-Nov-11 02:58N 44°44' E 037°47'0 0.0
2017-Nov-11 02:28N 44°44' E 037°47'0 0.0
2017-Nov-11 01:58N 44°44' E 037°47'0 0.0
2017-Nov-11 01:28N 44°44' E 037°47'0 0.0
2017-Nov-11 00:58N 44°44' E 037°47'0 0.0
2017-Nov-11 00:28N 44°44' E 037°47'0 0.0
2017-Nov-10 23:58N 44°44' E 037°47'0 0.0
2017-Nov-10 23:28N 44°44' E 037°47'0 0.0
2017-Nov-10 22:58N 44°44' E 037°47'0 0.0
2017-Nov-10 22:28N 44°44' E 037°47'0 0.0
2017-Nov-10 21:58N 44°44' E 037°47'0 0.0
2017-Nov-10 21:28N 44°44' E 037°47'0 0.0
2017-Nov-10 20:58N 44°44' E 037°47'0 0.0
2017-Nov-10 20:28N 44°44' E 037°47'0 0.0
2017-Nov-10 19:58N 44°44' E 037°47'0 0.0
2017-Nov-10 19:28N 44°44' E 037°47'0 0.0
2017-Nov-10 18:58N 44°44' E 037°47'0 0.0
2017-Nov-10 18:28N 44°44' E 037°47'0 0.0
2017-Nov-10 17:58N 44°44' E 037°47'0 0.0
2017-Nov-10 17:28N 44°44' E 037°47'0 0.0
2017-Nov-10 16:58N 44°44' E 037°47'0 0.0
2017-Nov-10 16:28N 44°44' E 037°47'0 0.0
2017-Nov-10 15:58N 44°44' E 037°47'0 0.0
2017-Nov-10 15:28N 44°44' E 037°47'0 0.0
2017-Nov-10 14:58N 44°44' E 037°47'0 0.0
2017-Nov-10 14:28N 44°44' E 037°47'0 0.0
2017-Nov-10 13:58N 44°44' E 037°47'0 0.0
2017-Nov-10 13:19N 44°44' E 037°47'0 0.0
2017-Nov-10 12:58N 44°44' E 037°47'0 0.0
2017-Nov-10 12:28N 44°44' E 037°47'0 0.0
2017-Nov-10 11:58N 44°44' E 037°47'0 0.0
2017-Nov-10 11:25N 44°44' E 037°47'0 0.0
2017-Nov-10 10:58N 44°44' E 037°47'0 0.0
2017-Nov-10 10:25N 44°44' E 037°47'0 0.0
2017-Nov-10 09:58N 44°44' E 037°47'0 0.0
2017-Nov-10 09:28N 44°44' E 037°47'0 0.0
2017-Nov-10 08:58N 44°44' E 037°47'0 0.0
2017-Nov-10 08:28N 44°44' E 037°47'0 0.0
2017-Nov-10 07:58N 44°44' E 037°47'0 0.0
2017-Nov-10 07:28N 44°44' E 037°47'0 0.0
2017-Nov-10 06:58N 44°44' E 037°47'0 0.0
2017-Nov-10 06:28N 44°44' E 037°47'0 0.0
2017-Nov-10 06:01N 44°44' E 037°47'0 0.0
2017-Nov-10 05:30N 44°44' E 037°47'0 0.0
2017-Nov-10 05:00N 44°44' E 037°47'0 0.0
2017-Nov-10 04:30N 44°44' E 037°47'0 0.0
2017-Nov-10 04:00N 44°44' E 037°47'0 0.0
2017-Nov-10 03:30N 44°44' E 037°47'0 0.0
2017-Nov-10 03:00N 44°44' E 037°47'0 0.0
2017-Nov-10 02:30N 44°44' E 037°47'0 0.0
2017-Nov-10 02:00N 44°44' E 037°47'0 0.0
2017-Nov-10 01:30N 44°44' E 037°47'0 0.0
2017-Nov-10 01:00N 44°44' E 037°47'0 0.0
2017-Nov-10 00:30N 44°44' E 037°47'0 0.0
2017-Nov-10 00:00N 44°44' E 037°47'1 2.4
2017-Nov-09 23:30N 44°43' E 037°48'4 7.8
2017-Nov-09 23:00N 44°40' E 037°51'4 7.3
2017-Nov-09 22:30N 44°36' E 037°52'4 7.8
2017-Nov-09 22:00N 44°32' E 037°52'4 8.0
2017-Nov-09 21:30N 44°28' E 037°51'4 8.2
2017-Nov-09 21:00N 44°24' E 037°50'4 8.3
2017-Nov-09 20:30N 44°20' E 037°50'11 0.3
2017-Nov-08 09:38N 44°10' E 037°42'4 8.4
2017-Nov-08 09:10N 44°14' E 037°44'2 8.3
2017-Nov-08 08:58N 44°16' E 037°45'4 8.6
2017-Nov-08 08:30N 44°19' E 037°47'3 6.9
2017-Nov-08 08:00N 44°23' E 037°49'0 0.4
2017-Nov-08 07:05N 44°22' E 037°49'0 0.4
2017-Nov-08 06:59N 44°22' E 037°49'0 0.4
2017-Nov-08 06:29N 44°22' E 037°49'0 0.5
2017-Nov-08 05:44N 44°22' E 037°49'6 0.3
2017-Nov-07 12:47N 44°17' E 037°45'2 6.8
2017-Nov-07 12:30N 44°18' E 037°43'4 6.9
2017-Nov-07 12:00N 44°21' E 037°41'3 7.0
2017-Nov-07 11:31N 44°24' E 037°38'4 7.1
2017-Nov-07 11:01N 44°27' E 037°36'0 0.3
2017-Nov-07 10:28N 44°27' E 037°36'1 1.6
2017-Nov-07 09:58N 44°27' E 037°36'1 1.6
2017-Nov-07 09:22N 44°26' E 037°37'1 1.6
2017-Nov-07 08:58N 44°25' E 037°37'1 1.6
2017-Nov-07 08:28N 44°25' E 037°38'1 1.8
2017-Nov-07 07:54N 44°24' E 037°39'2 4.9
2017-Nov-07 07:30N 44°25' E 037°41'4 7.0
2017-Nov-07 06:58N 44°25' E 037°46'1 2.3
2017-Nov-07 06:29N 44°25' E 037°48'1 1.6
2017-Nov-07 05:41N 44°24' E 037°49'0 1.6
2017-Nov-07 05:28N 44°23' E 037°49'2 4.7
2017-Nov-07 05:00N 44°23' E 037°52'4 8.9
2017-Nov-07 04:30N 44°21' E 037°58'30 8.4
2017-Nov-07 01:00N 44°05' E 038°33'5 8.9
2017-Nov-07 00:29N 44°02' E 038°37'4 8.7
2017-Nov-07 00:00N 43°59' E 038°42'4 8.1
2017-Nov-06 23:30N 43°57' E 038°46'4 8.3
2017-Nov-06 23:00N 43°54' E 038°50'4 8.4
2017-Nov-06 22:30N 43°51' E 038°54'4 8.4
2017-Nov-06 22:01N 43°48' E 038°58'4 8.5
2017-Nov-06 21:30N 43°45' E 039°03'5 8.7
2017-Nov-06 20:59N 43°42' E 039°07'  

Dump ship's entire track history